createdAt,value
2022-10-04T00:01:20.187Z,12.10
2022-10-04T00:03:28.764Z,12.20
2022-10-04T00:05:31.883Z,12.10
2022-10-04T00:07:37.623Z,12.10
2022-10-04T00:09:46.234Z,12.20
2022-10-04T00:11:49.657Z,12.10
2022-10-04T00:13:55.938Z,12.10
2022-10-04T00:15:58.768Z,12.10
2022-10-04T00:18:18.662Z,12.10
2022-10-04T00:20:53.324Z,12.10
2022-10-04T00:23:25.629Z,12.00
2022-10-04T00:25:37.092Z,12.10
2022-10-04T00:27:41.218Z,12.00
2022-10-04T00:29:43.638Z,12.00
2022-10-04T00:32:15.785Z,12.10
2022-10-04T00:34:47.285Z,12.10
2022-10-04T00:36:53.369Z,12.10
2022-10-04T00:39:49.588Z,12.10
2022-10-04T00:42:31.115Z,12.10
2022-10-04T00:44:38.917Z,12.10
2022-10-04T00:46:43.544Z,13.00
2022-10-04T00:48:49.225Z,12.10
2022-10-04T00:50:56.522Z,12.10
2022-10-04T00:53:00.775Z,12.10
2022-10-04T00:55:04.049Z,12.10
2022-10-04T00:57:15.108Z,12.10
2022-10-04T00:59:31.497Z,12.10
2022-10-04T01:01:38.104Z,12.70
2022-10-04T01:03:44.216Z,12.30
2022-10-04T01:05:50.110Z,12.10
2022-10-04T01:07:58.481Z,12.10
2022-10-04T01:10:04.414Z,12.10
2022-10-04T01:12:16.423Z,12.10
2022-10-04T01:14:25.855Z,12.30
2022-10-04T01:16:31.560Z,12.00
2022-10-04T01:18:35.509Z,12.10
2022-10-04T01:20:41.088Z,12.10
2022-10-04T01:22:50.448Z,12.20
2022-10-04T01:24:52.753Z,12.10
2022-10-04T01:26:55.055Z,12.10
2022-10-04T01:28:59.248Z,12.10
2022-10-04T01:31:01.524Z,12.10
2022-10-04T01:33:06.913Z,12.10
2022-10-04T01:35:11.484Z,12.00
2022-10-04T01:37:14.664Z,12.10
2022-10-04T01:39:21.444Z,12.10
2022-10-04T01:41:29.959Z,12.00
2022-10-04T01:43:36.586Z,12.00
2022-10-04T01:45:43.275Z,12.10
2022-10-04T01:47:50.029Z,12.00
2022-10-04T01:49:55.589Z,12.00
2022-10-04T01:52:03.614Z,12.00
2022-10-04T01:54:09.418Z,12.10
2022-10-04T01:56:18.216Z,12.00
2022-10-04T01:58:25.976Z,12.00
2022-10-04T02:00:30.343Z,12.60
2022-10-04T02:02:39.320Z,12.00
2022-10-04T02:04:42.570Z,12.00
2022-10-04T02:06:47.761Z,12.00
2022-10-04T02:08:54.594Z,12.00
2022-10-04T02:10:57.766Z,12.00
2022-10-04T02:13:08.995Z,12.00
2022-10-04T02:15:12.471Z,12.30
2022-10-04T02:17:17.397Z,12.00
2022-10-04T02:19:21.059Z,12.20
2022-10-04T02:21:24.973Z,11.90
2022-10-04T02:23:28.243Z,12.00
2022-10-04T02:25:31.230Z,12.00
2022-10-04T02:27:34.131Z,12.00
2022-10-04T02:29:39.360Z,11.90
2022-10-04T02:32:00.312Z,11.90
2022-10-04T02:34:03.133Z,11.90
2022-10-04T02:36:07.307Z,12.00
2022-10-04T02:38:15.280Z,11.90
2022-10-04T02:40:20.659Z,11.90
2022-10-04T02:42:34.724Z,11.90
2022-10-04T02:44:44.022Z,11.80
2022-10-04T02:46:54.000Z,11.80
2022-10-04T02:48:58.921Z,11.90
2022-10-04T02:51:12.018Z,11.80
2022-10-04T02:53:22.516Z,11.80
2022-10-04T02:55:28.007Z,11.80
2022-10-04T02:57:33.085Z,11.70
2022-10-04T02:59:39.536Z,11.70
2022-10-04T03:01:51.511Z,11.70
2022-10-04T03:03:55.819Z,11.70
2022-10-04T03:06:00.929Z,11.70
2022-10-04T03:08:05.261Z,11.70
2022-10-04T03:10:12.018Z,12.30
2022-10-04T03:12:15.291Z,11.60
2022-10-04T03:14:21.060Z,12.60
2022-10-04T03:16:25.101Z,11.60
2022-10-04T03:18:31.278Z,11.60
2022-10-04T03:20:37.616Z,11.60
2022-10-04T03:22:46.103Z,11.60
2022-10-04T03:24:53.616Z,11.60
2022-10-04T03:26:58.387Z,11.70
2022-10-04T03:29:00.979Z,11.60
2022-10-04T03:31:03.520Z,11.60
2022-10-04T03:33:06.199Z,11.60
2022-10-04T03:35:21.405Z,11.60
2022-10-04T03:37:32.251Z,11.70
2022-10-04T03:39:38.354Z,11.60
2022-10-04T03:41:45.100Z,11.60
2022-10-04T03:43:50.366Z,12.50
2022-10-04T03:45:53.804Z,11.50
2022-10-04T03:48:05.015Z,11.50
2022-10-04T03:50:18.709Z,11.50
2022-10-04T03:52:24.876Z,11.50
2022-10-04T03:54:28.115Z,11.50
2022-10-04T03:56:33.615Z,11.60
2022-10-04T03:58:39.397Z,11.50
2022-10-04T04:00:45.965Z,11.40
2022-10-04T04:02:52.358Z,11.50
2022-10-04T04:05:03.535Z,11.40
2022-10-04T04:07:13.166Z,11.40
2022-10-04T04:09:25.249Z,11.60
2022-10-04T04:11:28.908Z,11.40
2022-10-04T04:13:45.746Z,11.40
2022-10-04T04:15:48.323Z,11.40
2022-10-04T04:17:54.077Z,11.40
2022-10-04T04:20:01.322Z,11.40
2022-10-04T04:22:15.541Z,11.40
2022-10-04T04:24:24.938Z,11.40
2022-10-04T04:26:35.254Z,11.90
2022-10-04T04:28:42.556Z,11.40
2022-10-04T04:30:47.023Z,11.50
2022-10-04T04:32:54.564Z,11.40
2022-10-04T04:35:00.649Z,11.40
2022-10-04T04:37:04.497Z,11.40
2022-10-04T04:39:33.922Z,11.70
2022-10-04T04:41:36.887Z,11.30
2022-10-04T04:43:44.002Z,11.30
2022-10-04T04:46:02.872Z,11.30
2022-10-04T04:48:15.163Z,11.30
2022-10-04T04:50:19.532Z,11.30
2022-10-04T04:52:28.097Z,11.30
2022-10-04T04:54:33.259Z,11.30
2022-10-04T04:56:35.773Z,11.20
2022-10-04T04:58:42.066Z,11.30
2022-10-04T05:00:47.064Z,11.20
2022-10-04T05:02:58.505Z,11.20
2022-10-04T05:05:20.282Z,11.20
2022-10-04T05:07:22.717Z,11.20
2022-10-04T05:09:28.744Z,11.20
2022-10-04T05:11:38.918Z,11.20
2022-10-04T05:13:47.175Z,11.20
2022-10-04T05:15:54.000Z,11.10
2022-10-04T05:17:56.438Z,11.10
2022-10-04T05:20:00.620Z,12.30
2022-10-04T05:22:09.853Z,11.10
2022-10-04T05:24:17.766Z,11.10
2022-10-04T05:26:27.214Z,11.00
2022-10-04T05:28:33.803Z,11.30
2022-10-04T05:30:47.665Z,11.00
2022-10-04T05:32:59.951Z,11.00
2022-10-04T05:35:02.336Z,12.00
2022-10-04T05:37:20.810Z,11.00
2022-10-04T05:39:28.054Z,11.00
2022-10-04T05:41:36.570Z,10.90
2022-10-04T05:43:46.935Z,10.90
2022-10-04T05:46:07.453Z,10.90
2022-10-04T05:48:12.575Z,10.90
2022-10-04T05:50:23.388Z,10.90
2022-10-04T05:52:28.513Z,10.80
2022-10-04T05:54:34.251Z,10.80
2022-10-04T05:57:12.982Z,10.80
2022-10-04T05:59:34.006Z,10.80
2022-10-04T06:01:49.783Z,10.80
2022-10-04T06:04:16.604Z,10.80
2022-10-04T06:06:31.746Z,10.80
2022-10-04T06:08:47.537Z,10.70
2022-10-04T06:11:03.852Z,10.70
2022-10-04T06:13:19.051Z,10.80
2022-10-04T06:15:44.146Z,10.80
2022-10-04T06:18:11.509Z,10.70
2022-10-04T06:21:01.710Z,10.80
2022-10-04T06:23:13.529Z,10.80
2022-10-04T06:25:29.238Z,10.80
2022-10-04T06:27:41.118Z,10.90
2022-10-04T06:29:47.166Z,10.90
2022-10-04T06:32:13.125Z,11.00
2022-10-04T06:34:56.461Z,11.00
2022-10-04T06:37:12.564Z,11.00
2022-10-04T06:39:56.204Z,11.10
2022-10-04T06:42:34.064Z,11.20
2022-10-04T06:44:58.335Z,11.20
2022-10-04T06:47:15.929Z,11.20
2022-10-04T06:49:39.166Z,11.30
2022-10-04T06:52:04.800Z,11.30
2022-10-04T06:54:21.382Z,11.40
2022-10-04T06:56:46.675Z,11.40
2022-10-04T06:59:15.455Z,11.50
2022-10-04T07:01:28.587Z,11.50
2022-10-04T07:03:39.948Z,11.60
2022-10-04T07:05:48.521Z,11.60
2022-10-04T07:08:06.784Z,11.70
2022-10-04T07:10:33.379Z,11.80
2022-10-04T07:12:41.105Z,11.90
2022-10-04T07:14:46.281Z,12.00
2022-10-04T07:16:54.749Z,12.10
2022-10-04T07:19:09.751Z,12.20
2022-10-04T07:21:15.891Z,12.20
2022-10-04T07:23:29.145Z,12.40
2022-10-04T07:25:36.328Z,12.40
2022-10-04T07:28:10.306Z,12.50
2022-10-04T07:30:19.120Z,12.50
2022-10-04T07:32:26.325Z,12.40
2022-10-04T07:34:35.419Z,12.40
2022-10-04T07:36:45.394Z,12.40
2022-10-04T07:39:00.654Z,12.40
2022-10-04T07:41:09.393Z,12.50
2022-10-04T07:43:20.756Z,12.60
2022-10-04T07:45:29.903Z,13.20
2022-10-04T07:47:32.940Z,12.90
2022-10-04T07:49:41.082Z,13.10
2022-10-04T07:52:08.120Z,13.10
2022-10-04T07:54:18.778Z,13.20
2022-10-04T07:56:32.415Z,13.40
2022-10-04T07:58:47.114Z,13.10
2022-10-04T08:00:53.973Z,13.10
2022-10-04T08:03:27.102Z,13.10
2022-10-04T08:05:37.455Z,13.10
2022-10-04T08:07:50.211Z,13.10
2022-10-04T08:10:02.950Z,13.10
2022-10-04T08:12:16.772Z,13.20
2022-10-04T08:14:38.367Z,13.10
2022-10-04T08:16:54.658Z,13.00
2022-10-04T08:19:10.400Z,13.00
2022-10-04T08:21:23.548Z,13.00
2022-10-04T08:23:55.932Z,13.10
2022-10-04T08:26:12.796Z,13.20
2022-10-04T08:28:44.403Z,13.40
2022-10-04T08:31:24.909Z,13.40
2022-10-04T08:33:43.918Z,13.60
2022-10-04T08:35:56.117Z,13.70
2022-10-04T08:38:26.250Z,13.80
2022-10-04T08:41:10.435Z,13.90
2022-10-04T08:43:35.681Z,14.00
2022-10-04T08:45:55.236Z,14.10
2022-10-04T08:48:38.901Z,14.20
2022-10-04T08:51:06.147Z,14.20
2022-10-04T08:53:44.155Z,14.40
2022-10-04T08:56:09.379Z,14.40
2022-10-04T08:58:23.566Z,14.60
2022-10-04T09:00:35.512Z,15.10
2022-10-04T09:03:14.359Z,14.70
2022-10-04T09:05:29.485Z,14.80
2022-10-04T09:08:04.409Z,14.90
2022-10-04T09:10:35.199Z,15.00
2022-10-04T09:12:59.273Z,15.00
2022-10-04T09:15:34.007Z,15.00
2022-10-04T09:17:47.551Z,15.10
2022-10-04T09:20:09.066Z,15.20
2022-10-04T09:22:27.776Z,15.30
2022-10-04T09:25:01.240Z,15.20
2022-10-04T09:27:50.007Z,15.30
2022-10-04T09:30:02.787Z,15.40
2022-10-04T09:32:38.844Z,15.30
2022-10-04T09:35:22.266Z,15.60
2022-10-04T09:37:49.659Z,15.70
2022-10-04T09:40:27.446Z,15.80
2022-10-04T09:42:54.558Z,15.80
2022-10-04T09:45:34.786Z,15.80
2022-10-04T09:47:45.714Z,16.00
2022-10-04T09:50:26.947Z,16.00
2022-10-04T09:52:42.004Z,16.10
2022-10-04T09:54:57.300Z,16.20
2022-10-04T09:57:15.958Z,16.20
2022-10-04T09:59:36.492Z,16.30
2022-10-04T10:01:51.441Z,16.30
2022-10-04T10:04:25.732Z,16.60
2022-10-04T10:06:49.487Z,16.40
2022-10-04T10:09:06.793Z,16.50
2022-10-04T10:11:34.956Z,16.60
2022-10-04T10:14:10.535Z,16.60
2022-10-04T10:16:41.173Z,16.60
2022-10-04T10:19:03.524Z,16.70
2022-10-04T10:21:27.316Z,16.70
2022-10-04T10:24:11.732Z,16.70
2022-10-04T10:26:42.777Z,16.90
2022-10-04T10:29:08.375Z,17.00
2022-10-04T10:31:37.722Z,16.90
2022-10-04T10:34:15.125Z,17.10
2022-10-04T10:36:42.505Z,17.20
2022-10-04T10:39:02.047Z,17.20
2022-10-04T10:41:32.282Z,17.30
2022-10-04T10:43:58.398Z,17.40
2022-10-04T10:46:09.394Z,17.40
2022-10-04T10:48:17.899Z,18.20
2022-10-04T10:50:58.542Z,17.60
2022-10-04T10:53:20.293Z,17.80
2022-10-04T10:55:32.816Z,17.70
2022-10-04T10:58:07.781Z,17.70
2022-10-04T11:00:21.391Z,17.70
2022-10-04T11:02:53.668Z,17.70
2022-10-04T11:05:14.660Z,17.70
2022-10-04T11:07:41.163Z,17.90
2022-10-04T11:10:02.753Z,17.80
2022-10-04T11:12:35.048Z,17.80
2022-10-04T11:15:21.225Z,17.80
2022-10-04T11:18:02.069Z,17.80
2022-10-04T11:20:38.983Z,17.90
2022-10-04T11:23:11.014Z,18.00
2022-10-04T11:25:47.478Z,18.10
2022-10-04T11:28:02.478Z,18.30
2022-10-04T11:30:26.391Z,18.40
2022-10-04T11:33:11.928Z,18.50
2022-10-04T11:35:44.948Z,18.60
2022-10-04T11:37:59.041Z,18.70
2022-10-04T11:40:30.818Z,18.70
2022-10-04T11:43:01.128Z,18.70
2022-10-04T11:45:21.166Z,18.60
2022-10-04T11:47:42.700Z,18.40
2022-10-04T11:50:03.179Z,18.30
2022-10-04T11:52:37.053Z,18.40
2022-10-04T11:55:08.183Z,18.30
2022-10-04T11:57:24.591Z,18.40
2022-10-04T11:59:41.557Z,18.10
2022-10-04T12:02:18.130Z,18.10
2022-10-04T12:04:38.235Z,18.10
2022-10-04T12:06:53.437Z,18.20
2022-10-04T12:09:07.642Z,18.30
2022-10-04T12:11:52.077Z,18.30
2022-10-04T12:14:09.547Z,18.30
2022-10-04T12:16:37.385Z,19.00
2022-10-04T12:19:16.216Z,18.40
2022-10-04T12:21:41.248Z,18.50
2022-10-04T12:24:07.335Z,18.60
2022-10-04T12:26:32.903Z,18.60
2022-10-04T12:29:11.878Z,18.70
2022-10-04T12:31:23.912Z,18.70
2022-10-04T12:33:34.956Z,18.60
2022-10-04T12:35:56.980Z,18.70
2022-10-04T12:38:21.887Z,18.80
2022-10-04T12:40:33.195Z,18.90
2022-10-04T12:42:46.951Z,18.90
2022-10-04T12:45:06.595Z,18.90
2022-10-04T12:47:44.764Z,18.90
2022-10-04T12:49:56.437Z,18.70
2022-10-04T12:52:07.322Z,18.60
2022-10-04T12:54:23.445Z,18.50
2022-10-04T12:56:50.010Z,18.50
2022-10-04T12:59:19.270Z,18.40
2022-10-04T13:01:32.813Z,18.40
2022-10-04T13:03:43.925Z,18.40
2022-10-04T13:06:02.457Z,18.50
2022-10-04T13:08:18.520Z,18.60
2022-10-04T13:10:38.420Z,18.70
2022-10-04T13:13:14.471Z,18.50
2022-10-04T13:17:22.285Z,18.60
2022-10-04T13:18:05.036Z,18.60
2022-10-04T13:20:34.562Z,18.60
2022-10-04T13:22:56.648Z,18.60
2022-10-04T13:25:14.871Z,18.70
2022-10-04T13:27:21.244Z,18.70
2022-10-04T13:29:31.229Z,19.00
2022-10-04T13:31:39.566Z,18.80
2022-10-04T13:33:50.420Z,18.80
2022-10-04T13:35:59.915Z,18.80
2022-10-04T13:38:24.933Z,18.80
2022-10-04T13:40:50.738Z,18.70
2022-10-04T13:43:20.232Z,18.70
2022-10-04T13:45:35.543Z,18.70
2022-10-04T13:48:18.192Z,18.60
2022-10-04T13:50:33.999Z,18.50
2022-10-04T13:53:10.507Z,18.40
2022-10-04T13:55:46.889Z,18.30
2022-10-04T13:57:54.847Z,18.20
2022-10-04T14:00:04.216Z,18.20
2022-10-04T14:02:39.917Z,18.10
2022-10-04T14:05:27.180Z,18.10
2022-10-04T14:07:45.248Z,18.10
2022-10-04T14:10:19.173Z,18.10
2022-10-04T14:13:09.483Z,18.10
2022-10-04T14:15:53.860Z,18.10
2022-10-04T14:18:27.527Z,18.10
2022-10-04T14:21:19.140Z,18.10
2022-10-04T14:23:45.766Z,18.00
2022-10-04T14:26:22.041Z,18.00
2022-10-04T14:28:58.948Z,18.00
2022-10-04T14:31:23.308Z,18.00
2022-10-04T14:37:08.380Z,18.00
2022-10-04T14:39:44.068Z,18.00
2022-10-04T14:42:25.331Z,17.90
2022-10-04T14:44:47.502Z,17.90
2022-10-04T14:47:00.759Z,17.90
2022-10-04T14:49:16.562Z,17.80
2022-10-04T14:51:44.415Z,17.80
2022-10-04T14:53:58.088Z,17.70
2022-10-04T14:56:27.193Z,17.80
2022-10-04T14:58:40.929Z,17.60
2022-10-04T15:01:12.160Z,17.60
2022-10-04T15:03:28.979Z,17.50
2022-10-04T15:05:44.170Z,17.50
2022-10-04T15:07:50.049Z,17.40
2022-10-04T15:09:57.595Z,17.50
2022-10-04T15:12:36.405Z,17.30
2022-10-04T15:14:42.580Z,17.30
2022-10-04T15:16:50.882Z,17.20
2022-10-04T15:18:56.797Z,17.20
2022-10-04T15:21:12.378Z,17.10
2022-10-04T15:23:23.701Z,17.10
2022-10-04T15:25:47.441Z,17.00
2022-10-04T15:27:55.136Z,17.00
2022-10-04T15:30:12.711Z,16.80
2022-10-04T15:32:26.371Z,17.40
2022-10-04T15:34:47.229Z,16.80
2022-10-04T15:37:38.378Z,16.80
2022-10-04T15:40:15.107Z,16.80
2022-10-04T15:42:27.035Z,16.80
2022-10-04T15:45:01.705Z,16.80
2022-10-04T15:47:15.435Z,16.80
2022-10-04T15:49:30.085Z,16.80
2022-10-04T15:51:41.600Z,16.80
2022-10-04T15:53:56.054Z,16.70
2022-10-04T15:56:13.882Z,16.70
2022-10-04T15:58:31.100Z,16.70
2022-10-04T16:00:53.714Z,16.70
2022-10-04T16:03:13.268Z,16.70
2022-10-04T16:05:25.880Z,16.70
2022-10-04T16:07:54.050Z,16.70
2022-10-04T16:10:07.055Z,16.70
2022-10-04T16:12:26.220Z,16.70
2022-10-04T16:14:58.606Z,16.60
2022-10-04T16:17:28.717Z,16.10
2022-10-04T16:19:55.271Z,16.50
2022-10-04T16:22:11.236Z,16.50
2022-10-04T16:24:39.729Z,16.50
2022-10-04T16:27:14.066Z,16.50
2022-10-04T16:29:30.516Z,16.40
2022-10-04T16:31:46.485Z,16.40
2022-10-04T16:34:00.958Z,16.40
2022-10-04T16:36:12.336Z,16.30
2022-10-04T16:38:23.664Z,16.30
2022-10-04T16:40:35.465Z,16.30
2022-10-04T16:42:49.358Z,16.60
2022-10-04T16:44:59.390Z,16.20
2022-10-04T16:47:14.464Z,16.20
2022-10-04T16:49:24.084Z,16.10
2022-10-04T16:51:52.502Z,16.80
2022-10-04T16:54:06.086Z,16.00
2022-10-04T16:56:12.637Z,16.00
2022-10-04T16:58:49.971Z,15.90
2022-10-04T17:01:38.665Z,15.90
2022-10-04T17:03:53.156Z,15.90
2022-10-04T17:06:13.080Z,15.80
2022-10-04T17:08:25.813Z,15.80
2022-10-04T17:10:34.282Z,15.80
2022-10-04T17:12:46.859Z,15.80
2022-10-04T17:15:10.226Z,15.70
2022-10-04T17:17:24.656Z,15.70
2022-10-04T17:19:30.821Z,15.70
2022-10-04T17:21:40.820Z,15.60
2022-10-04T17:24:14.526Z,15.60
2022-10-04T17:26:35.299Z,15.60
2022-10-04T17:28:49.755Z,15.60
2022-10-04T17:31:04.318Z,15.50
2022-10-04T17:33:24.262Z,15.90
2022-10-04T17:36:04.521Z,15.20
2022-10-04T17:38:10.952Z,15.40
2022-10-04T17:40:41.205Z,15.50
2022-10-04T17:42:55.213Z,15.40
2022-10-04T17:45:13.997Z,15.70
2022-10-04T17:47:24.167Z,15.40
2022-10-04T17:49:55.940Z,15.40
2022-10-04T17:52:22.898Z,15.40
2022-10-04T17:54:47.343Z,15.30
2022-10-04T17:56:53.071Z,15.30
2022-10-04T17:58:58.003Z,15.30
2022-10-04T18:01:08.297Z,15.30
2022-10-04T18:03:16.023Z,15.30
2022-10-04T18:05:23.897Z,15.30
2022-10-04T18:07:31.464Z,15.30
2022-10-04T18:09:40.999Z,15.30
2022-10-04T18:11:47.303Z,15.30
2022-10-04T18:14:02.571Z,15.30
2022-10-04T18:16:15.080Z,15.30
2022-10-04T18:18:24.836Z,15.30
2022-10-04T18:20:35.699Z,15.30
2022-10-04T18:22:46.797Z,15.30
2022-10-04T18:25:13.609Z,15.90
2022-10-04T18:27:22.166Z,15.30
2022-10-04T18:29:38.056Z,15.30
2022-10-04T18:31:40.910Z,15.30
2022-10-04T18:33:48.539Z,15.30
2022-10-04T18:36:01.025Z,15.30
2022-10-04T18:38:21.429Z,15.30
2022-10-04T18:40:28.586Z,15.50
2022-10-04T18:42:37.096Z,15.30
2022-10-04T18:44:45.782Z,15.30
2022-10-04T18:46:54.727Z,15.30
2022-10-04T18:49:04.207Z,15.30
2022-10-04T18:51:39.251Z,15.30
2022-10-04T18:53:46.307Z,15.30
2022-10-04T18:55:59.091Z,15.40
2022-10-04T18:58:31.922Z,15.30
2022-10-04T19:00:59.933Z,15.30
2022-10-04T19:03:07.888Z,15.30
2022-10-04T19:05:25.303Z,15.30
2022-10-04T19:07:38.122Z,15.40
2022-10-04T19:09:58.818Z,15.30
2022-10-04T19:12:06.131Z,15.40
2022-10-04T19:14:23.479Z,15.60
2022-10-04T19:16:36.289Z,15.40
2022-10-04T19:18:57.930Z,15.40
2022-10-04T19:21:08.695Z,15.50
2022-10-04T19:23:25.102Z,15.40
2022-10-04T19:25:35.644Z,15.40
2022-10-04T19:27:45.287Z,15.50
2022-10-04T19:30:09.925Z,16.10
2022-10-04T19:32:21.779Z,15.50
2022-10-04T19:34:33.753Z,15.40
2022-10-04T19:36:48.930Z,15.50
2022-10-04T19:39:12.404Z,15.50
2022-10-04T19:41:26.726Z,15.50
2022-10-04T19:43:38.048Z,15.50
2022-10-04T19:45:48.610Z,15.50
2022-10-04T19:47:56.592Z,15.80
2022-10-04T19:50:03.209Z,15.50
2022-10-04T19:52:18.573Z,15.50
2022-10-04T19:54:33.544Z,15.50
2022-10-04T19:56:43.184Z,15.50
2022-10-04T19:58:52.373Z,15.50
2022-10-04T20:00:55.353Z,15.50
2022-10-04T20:02:57.835Z,15.60
2022-10-04T20:05:00.365Z,15.50
2022-10-04T20:07:04.959Z,15.60
2022-10-04T20:09:30.050Z,15.50
2022-10-04T20:11:48.518Z,15.50
2022-10-04T20:14:21.469Z,15.50
2022-10-04T20:17:02.500Z,15.50
2022-10-04T20:19:15.703Z,15.50
2022-10-04T20:21:26.654Z,15.50
2022-10-04T20:23:49.942Z,15.50
2022-10-04T20:26:06.291Z,15.50
2022-10-04T20:28:08.929Z,15.50
2022-10-04T20:30:16.525Z,15.50
2022-10-04T20:32:49.196Z,15.50
2022-10-04T20:34:51.487Z,15.50
2022-10-04T20:36:53.838Z,15.50
2022-10-04T20:39:00.490Z,15.40
2022-10-04T20:41:05.553Z,15.40
2022-10-04T20:43:26.736Z,15.40
2022-10-04T20:45:30.489Z,15.40
2022-10-04T20:47:47.842Z,15.40
2022-10-04T20:49:53.752Z,15.70
2022-10-04T20:51:55.962Z,15.30
2022-10-04T20:53:59.677Z,15.40
2022-10-04T20:56:24.655Z,15.40
2022-10-04T20:58:35.043Z,15.40
2022-10-04T21:00:51.790Z,15.40
2022-10-04T21:03:15.610Z,15.40
2022-10-04T21:05:24.516Z,15.40
2022-10-04T21:07:27.307Z,15.40
2022-10-04T21:09:33.958Z,15.40
2022-10-04T21:11:53.724Z,15.40
2022-10-04T21:14:00.422Z,15.00
2022-10-04T21:16:02.723Z,15.30
2022-10-04T21:18:07.223Z,15.30
2022-10-04T21:20:15.485Z,15.30
2022-10-04T21:22:39.592Z,15.30
2022-10-04T21:24:43.472Z,15.30
2022-10-04T21:26:58.392Z,15.30
2022-10-04T21:29:01.650Z,15.30
2022-10-04T21:31:04.375Z,15.30
2022-10-04T21:33:07.784Z,15.30
2022-10-04T21:35:11.664Z,15.30
2022-10-04T21:37:14.342Z,15.30
2022-10-04T21:39:16.864Z,15.30
2022-10-04T21:41:28.261Z,15.30
2022-10-04T21:43:34.348Z,15.30
2022-10-04T21:45:36.889Z,15.50
2022-10-04T21:47:39.329Z,15.30
2022-10-04T21:49:44.897Z,15.60
2022-10-04T21:51:47.362Z,15.30
2022-10-04T21:53:49.592Z,15.20
2022-10-04T21:55:51.995Z,15.60
2022-10-04T21:57:54.326Z,15.30
2022-10-04T21:59:59.196Z,15.20
2022-10-04T22:05:00.842Z,15.30
2022-10-04T22:07:03.345Z,15.30
2022-10-04T22:11:57.182Z,15.20
2022-10-04T22:14:00.143Z,15.30
2022-10-04T22:16:05.659Z,15.20
2022-10-04T22:18:08.202Z,15.20
2022-10-04T22:20:10.546Z,15.20
2022-10-04T22:22:15.355Z,15.20
2022-10-04T22:24:19.824Z,15.30
2022-10-04T22:26:23.696Z,15.20
2022-10-04T22:28:31.350Z,16.00
2022-10-04T22:30:36.422Z,15.20
2022-10-04T22:32:41.385Z,15.30
2022-10-04T22:34:44.295Z,15.60
2022-10-04T22:36:48.111Z,15.30
2022-10-04T22:38:52.135Z,15.30
2022-10-04T22:40:54.413Z,15.30
2022-10-04T22:43:00.772Z,15.30
2022-10-04T22:45:06.475Z,15.30
2022-10-04T22:47:16.086Z,15.30
2022-10-04T22:49:24.438Z,15.50
2022-10-04T22:51:28.925Z,15.30
2022-10-04T22:53:34.032Z,15.30
2022-10-04T22:55:36.631Z,15.30
2022-10-04T22:57:38.947Z,15.30
2022-10-04T22:59:43.604Z,15.40
2022-10-04T23:01:46.582Z,15.30
2022-10-04T23:03:49.442Z,15.40
2022-10-04T23:05:54.473Z,15.40
2022-10-04T23:07:56.803Z,15.40
2022-10-04T23:09:59.134Z,15.90
2022-10-04T23:12:01.446Z,15.40
2022-10-04T23:14:03.917Z,15.40
2022-10-04T23:16:13.589Z,15.40
2022-10-04T23:18:17.386Z,15.40
2022-10-04T23:20:20.641Z,16.40
2022-10-04T23:22:28.422Z,15.40
2022-10-04T23:24:33.892Z,15.40
2022-10-04T23:26:39.440Z,15.40
2022-10-04T23:28:41.701Z,15.40
2022-10-04T23:30:45.560Z,15.40
2022-10-04T23:32:55.379Z,15.70
2022-10-04T23:34:58.622Z,15.80
2022-10-04T23:37:19.912Z,15.40
2022-10-04T23:39:29.876Z,15.40
2022-10-04T23:41:32.098Z,15.40
2022-10-04T23:43:34.580Z,15.40
2022-10-04T23:45:42.125Z,15.40
2022-10-04T23:47:45.632Z,15.50
2022-10-04T23:49:50.169Z,15.40
2022-10-04T23:51:56.833Z,15.80
2022-10-04T23:53:59.711Z,15.40
2022-10-04T23:56:09.090Z,15.40
2022-10-04T23:58:14.846Z,15.40
